CYWG/YWG METAR and TAF weather

Enter ICAO airport designator
Station Type Date Time Source
CYWG METAR 2021/02/25 01:00 UTC NOAA

CYWG 250100Z 26004KT 15SM OVC025 M08/M11 A3017 RMK SC8 SLP240


Station Type Date Time Source
CYWG Decoded METAR 2021/02/25 01:00 UTC NOAA

Winnipeg Int. Airportman., Canada (CYWG) 49-54N 097-14W 239M
Feb 24, 2021 - 08:00 PM EST / 2021.02.25 0100 UTC
Wind: from the W (260 degrees) at 5 MPH (4 KT):0
Visibility: 15 mile(s):0
Sky conditions: overcast
Temperature: 17 F (-8 C)
Windchill: 8 F (-13 C):1
Dew Point: 12 F (-11 C)
Relative Humidity: 78%
Pressure (altimeter): 30.17 in. Hg (1021 hPa)
ob: CYWG 250100Z 26004KT 15SM OVC025 M08/M11 A3017 RMK SC8 SLP240
cycle: 1

Station Type Date Time Source
CYWG TAF 2021/02/24 18:42 UTC NOAA

TAF CYWG 241738Z 2418/2518 VRB03KT P6SM -SHSN SCT015 BKN050
TEMPO 2418/2422 2SM -SHSN OVC015
FM242200 28006KT P6SM SCT025 BKN080
TEMPO 2422/2501 P6SM -SN BKN020 OVC080
FM250100 24005KT P6SM SCT012 BKN025
TEMPO 2501/2512 21/2SM -SHSN OVC012
BECMG 2504/2506 22010KT
FM251200 24012KT P6SM FEW012
RMK NXT FCST BY 250000Z

Example: see airport list